createdAt,value
2023-02-05T00:02:26.953Z,100.00
2023-02-05T00:04:55.516Z,100.00
2023-02-05T00:07:24.208Z,100.00
2023-02-05T00:09:52.800Z,100.00
2023-02-05T00:12:21.393Z,100.00
2023-02-05T00:14:50.017Z,100.00
2023-02-05T00:17:19.999Z,100.00
2023-02-05T00:19:48.781Z,100.00
2023-02-05T00:22:17.420Z,100.00
2023-02-05T00:24:45.953Z,100.00
2023-02-05T00:27:14.462Z,100.00
2023-02-05T00:29:43.057Z,100.00
2023-02-05T00:32:11.634Z,100.00
2023-02-05T00:34:42.533Z,100.00
2023-02-05T00:37:11.190Z,100.00
2023-02-05T00:39:39.636Z,100.00
2023-02-05T00:42:08.300Z,100.00
2023-02-05T00:44:36.806Z,100.00
2023-02-05T00:47:05.317Z,100.00
2023-02-05T00:49:33.685Z,100.00
2023-02-05T00:52:04.959Z,100.00
2023-02-05T00:54:33.618Z,100.00
2023-02-05T00:57:02.212Z,100.00
2023-02-05T00:59:30.631Z,100.00
2023-02-05T01:02:00.609Z,100.00
2023-02-05T01:04:29.349Z,100.00
2023-02-05T01:06:57.823Z,100.00
2023-02-05T01:09:27.837Z,100.00
2023-02-05T01:11:56.215Z,100.00
2023-02-05T01:14:24.656Z,100.00
2023-02-05T01:16:53.090Z,100.00
2023-02-05T01:19:21.817Z,100.00
2023-02-05T01:21:50.413Z,100.00
2023-02-05T01:24:19.060Z,100.00
2023-02-05T01:26:49.068Z,100.00
2023-02-05T01:29:17.615Z,100.00
2023-02-05T01:31:46.258Z,100.00
2023-02-05T01:34:14.781Z,100.00
2023-02-05T01:36:43.213Z,100.00
2023-02-05T01:39:11.822Z,100.00
2023-02-05T01:41:42.188Z,100.00
2023-02-05T01:44:14.008Z,100.00
2023-02-05T01:46:44.193Z,100.00
2023-02-05T01:49:17.244Z,100.00
2023-02-05T01:51:47.029Z,100.00
2023-02-05T01:54:16.736Z,100.00
2023-02-05T01:56:49.968Z,100.00
2023-02-05T01:59:24.710Z,100.00
2023-02-05T02:01:54.430Z,100.00
2023-02-05T02:04:33.910Z,100.00
2023-02-05T02:07:03.242Z,100.00
2023-02-05T02:09:31.924Z,100.00
2023-02-05T02:12:00.530Z,100.00
2023-02-05T02:14:32.366Z,100.00
2023-02-05T02:17:03.742Z,100.00
2023-02-05T02:19:39.583Z,100.00
2023-02-05T02:22:29.267Z,100.00
2023-02-05T02:25:42.692Z,100.00
2023-02-05T02:28:14.921Z,100.00
2023-02-05T02:30:47.274Z,100.00
2023-02-05T02:33:22.863Z,100.00
2023-02-05T02:36:00.232Z,100.00
2023-02-05T02:38:33.655Z,100.00
2023-02-05T02:41:08.164Z,100.00
2023-02-05T02:43:42.638Z,100.00
2023-02-05T02:46:18.698Z,100.00
2023-02-05T02:48:49.392Z,100.00
2023-02-05T02:51:20.580Z,100.00
2023-02-05T02:53:52.000Z,100.00
2023-02-05T02:56:21.563Z,100.00
2023-02-05T02:58:55.749Z,100.00
2023-02-05T03:01:28.759Z,100.00
2023-02-05T03:04:02.088Z,100.00
2023-02-05T03:06:33.260Z,100.00
2023-02-05T03:09:05.989Z,100.00
2023-02-05T03:11:36.070Z,100.00
2023-02-05T03:14:06.204Z,100.00
2023-02-05T03:16:34.935Z,100.00
2023-02-05T03:19:05.769Z,100.00
2023-02-05T03:21:38.482Z,100.00
2023-02-05T03:24:08.112Z,100.00
2023-02-05T03:26:38.569Z,100.00
2023-02-05T03:29:11.954Z,100.00
2023-02-05T03:31:47.788Z,100.00
2023-02-05T03:34:28.288Z,100.00
2023-02-05T03:37:10.492Z,100.00
2023-02-05T03:39:51.249Z,100.00
2023-02-05T03:42:33.132Z,100.00
2023-02-05T03:45:21.475Z,100.00
2023-02-05T03:48:04.088Z,100.00
2023-02-05T03:50:37.344Z,100.00
2023-02-05T03:53:13.946Z,100.00
2023-02-05T03:55:48.009Z,100.00
2023-02-05T03:58:23.474Z,100.00
2023-02-05T04:00:53.561Z,100.00
2023-02-05T04:03:22.082Z,100.00
2023-02-05T04:05:51.089Z,100.00
2023-02-05T04:08:19.606Z,100.00
2023-02-05T04:10:48.142Z,100.00
2023-02-05T04:13:16.693Z,100.00
2023-02-05T04:15:45.185Z,100.00
2023-02-05T04:18:15.000Z,100.00
2023-02-05T04:20:43.402Z,100.00
2023-02-05T04:23:12.009Z,100.00
2023-02-05T04:25:41.014Z,100.00
2023-02-05T04:28:11.478Z,100.00
2023-02-05T04:30:40.826Z,100.00
2023-02-05T04:33:09.297Z,100.00
2023-02-05T04:35:39.144Z,100.00
2023-02-05T04:38:08.035Z,100.00
2023-02-05T04:40:36.622Z,100.00
2023-02-05T04:43:05.014Z,100.00
2023-02-05T04:45:34.026Z,100.00
2023-02-05T04:48:02.861Z,100.00
2023-02-05T04:50:31.387Z,100.00
2023-02-05T04:53:02.436Z,100.00
2023-02-05T04:55:31.741Z,100.00
2023-02-05T04:58:00.909Z,100.00
2023-02-05T05:00:29.493Z,100.00
2023-02-05T05:02:59.027Z,100.00
2023-02-05T05:05:27.467Z,100.00
2023-02-05T05:07:56.032Z,100.00
2023-02-05T05:10:26.078Z,100.00
2023-02-05T05:12:54.520Z,100.00
2023-02-05T05:15:23.078Z,100.00
2023-02-05T05:17:51.503Z,100.00
2023-02-05T05:20:20.475Z,100.00
2023-02-05T05:22:48.931Z,100.00
2023-02-05T05:25:17.892Z,100.00
2023-02-05T05:27:47.959Z,100.00
2023-02-05T05:30:16.799Z,100.00
2023-02-05T05:32:45.323Z,100.00
2023-02-05T05:35:13.763Z,100.00
2023-02-05T05:37:42.195Z,100.00
2023-02-05T05:40:39.202Z,100.00
2023-02-05T05:43:29.078Z,100.00
2023-02-05T05:45:57.825Z,100.00
2023-02-05T05:48:26.744Z,100.00
2023-02-05T05:50:55.152Z,100.00
2023-02-05T05:53:23.792Z,100.00
2023-02-05T05:55:52.203Z,100.00
2023-02-05T05:58:22.086Z,100.00
2023-02-05T06:00:50.537Z,100.00
2023-02-05T06:03:19.944Z,100.00
2023-02-05T06:05:48.476Z,100.00
2023-02-05T06:08:17.011Z,100.00
2023-02-05T06:10:45.948Z,100.00
2023-02-05T06:13:14.409Z,100.00
2023-02-05T06:15:44.837Z,100.00
2023-02-05T06:18:13.302Z,100.00
2023-02-05T06:20:41.854Z,100.00
2023-02-05T06:23:10.272Z,100.00
2023-02-05T06:25:39.182Z,100.00
2023-02-05T06:28:07.983Z,100.00
2023-02-05T06:30:36.449Z,100.00
2023-02-05T06:33:06.749Z,100.00
2023-02-05T06:35:35.735Z,100.00
2023-02-05T06:38:04.680Z,100.00
2023-02-05T06:40:33.570Z,100.00
2023-02-05T06:43:02.009Z,100.00
2023-02-05T06:45:30.553Z,100.00
2023-02-05T06:47:59.493Z,100.00
2023-02-05T06:50:29.350Z,100.00
2023-02-05T06:52:58.380Z,100.00
2023-02-05T06:55:26.936Z,100.00
2023-02-05T06:57:55.541Z,100.00
2023-02-05T07:00:24.199Z,100.00
2023-02-05T07:02:53.954Z,100.00
2023-02-05T07:05:23.220Z,100.00
2023-02-05T07:07:53.849Z,100.00
2023-02-05T07:10:23.120Z,100.00
2023-02-05T07:12:52.939Z,100.00
2023-02-05T07:15:21.331Z,100.00
2023-02-05T07:17:49.766Z,100.00
2023-02-05T07:20:19.132Z,100.00
2023-02-05T07:22:48.503Z,100.00
2023-02-05T07:25:18.516Z,100.00
2023-02-05T07:27:46.934Z,100.00
2023-02-05T07:30:16.709Z,100.00
2023-02-05T07:32:45.256Z,100.00
2023-02-05T07:35:13.808Z,100.00
2023-02-05T07:37:42.558Z,100.00
2023-02-05T07:40:14.763Z,100.00
2023-02-05T07:42:44.733Z,100.00
2023-02-05T07:45:13.447Z,100.00
2023-02-05T07:47:41.892Z,100.00
2023-02-05T07:50:10.962Z,100.00
2023-02-05T07:52:39.589Z,100.00
2023-02-05T07:55:08.946Z,100.00
2023-02-05T07:57:37.783Z,100.00
2023-02-05T08:00:10.023Z,100.00
2023-02-05T08:02:38.574Z,100.00
2023-02-05T08:05:07.947Z,100.00
2023-02-05T08:07:37.655Z,100.00
2023-02-05T08:10:07.180Z,100.00
2023-02-05T08:12:35.851Z,100.00
2023-02-05T08:15:04.254Z,100.00
2023-02-05T08:17:34.340Z,100.00
2023-02-05T08:20:07.471Z,100.00
2023-02-05T08:22:37.359Z,100.00
2023-02-05T08:25:07.555Z,100.00
2023-02-05T08:27:37.118Z,100.00
2023-02-05T08:30:06.518Z,100.00
2023-02-05T08:32:36.332Z,100.00
2023-02-05T08:35:05.252Z,100.00
2023-02-05T08:37:33.716Z,100.00
2023-02-05T08:40:02.265Z,100.00
2023-02-05T08:42:31.014Z,100.00
2023-02-05T08:45:00.261Z,100.00
2023-02-05T08:47:28.909Z,100.00
2023-02-05T08:49:58.783Z,100.00
2023-02-05T08:52:27.226Z,100.00
2023-02-05T08:54:55.675Z,100.00
2023-02-05T08:57:24.094Z,100.00
2023-02-05T08:59:52.757Z,100.00
2023-02-05T09:02:21.262Z,100.00
2023-02-05T09:04:51.450Z,100.00
2023-02-05T09:07:26.305Z,100.00
2023-02-05T09:09:54.991Z,100.00
2023-02-05T09:12:23.532Z,100.00
2023-02-05T09:14:52.067Z,100.00
2023-02-05T09:17:20.601Z,100.00
2023-02-05T09:19:49.156Z,100.00
2023-02-05T09:22:18.886Z,100.00
2023-02-05T09:24:48.712Z,100.00
2023-02-05T09:27:17.160Z,100.00
2023-02-05T09:29:45.601Z,100.00
2023-02-05T09:32:14.850Z,100.00
2023-02-05T09:34:43.338Z,100.00
2023-02-05T09:37:12.099Z,100.00
2023-02-05T09:42:40.925Z,100.00
2023-02-05T09:45:25.696Z,100.00
2023-02-05T09:48:03.967Z,100.00
2023-02-05T09:50:33.776Z,100.00
2023-02-05T09:53:06.038Z,100.00
2023-02-05T09:55:40.455Z,100.00
2023-02-05T09:58:18.005Z,100.00
2023-02-05T10:00:48.587Z,100.00
2023-02-05T10:03:27.236Z,100.00
2023-02-05T10:06:11.752Z,100.00
2023-02-05T10:08:46.792Z,100.00
2023-02-05T10:11:20.674Z,100.00
2023-02-05T10:14:04.131Z,100.00
2023-02-05T10:16:50.162Z,100.00
2023-02-05T10:19:57.079Z,100.00
2023-02-05T10:22:28.865Z,100.00
2023-02-05T10:25:34.399Z,100.00
2023-02-05T10:28:14.039Z,100.00
2023-02-05T10:30:53.200Z,100.00
2023-02-05T10:33:42.111Z,100.00
2023-02-05T10:36:15.317Z,100.00
2023-02-05T10:38:46.011Z,100.00
2023-02-05T10:41:19.034Z,99.62
2023-02-05T10:43:51.503Z,100.00
2023-02-05T10:46:21.866Z,98.13
2023-02-05T10:48:56.976Z,100.00
2023-02-05T10:51:33.726Z,99.31
2023-02-05T10:54:02.357Z,98.92
2023-02-05T10:56:30.888Z,99.76
2023-02-05T10:59:02.092Z,100.00
2023-02-05T11:01:36.364Z,98.54
2023-02-05T11:04:09.369Z,98.03
2023-02-05T11:06:41.825Z,100.00
2023-02-05T11:09:31.897Z,99.69
2023-02-05T11:12:02.796Z,99.16
2023-02-05T11:14:35.116Z,97.37
2023-02-05T11:17:11.745Z,98.72
2023-02-05T11:19:40.300Z,94.79
2023-02-05T11:22:08.665Z,96.00
2023-02-05T11:24:41.379Z,96.80
2023-02-05T11:27:32.285Z,97.26
2023-02-05T11:30:37.693Z,94.83
2023-02-05T11:33:26.012Z,93.33
2023-02-05T11:35:57.490Z,93.78
2023-02-05T11:38:31.768Z,95.16
2023-02-05T11:41:02.657Z,96.01
2023-02-05T11:43:33.976Z,96.81
2023-02-05T11:46:05.570Z,95.88
2023-02-05T11:48:41.217Z,96.24
2023-02-05T11:51:14.256Z,96.08
2023-02-05T11:53:52.182Z,96.73
2023-02-05T11:56:25.250Z,96.37
2023-02-05T11:59:01.857Z,96.21
2023-02-05T12:01:34.331Z,97.18
2023-02-05T12:04:16.189Z,96.07
2023-02-05T12:06:51.329Z,94.75
2023-02-05T12:09:23.815Z,94.76
2023-02-05T12:12:04.343Z,95.85
2023-02-05T12:14:41.368Z,93.77
2023-02-05T12:17:26.122Z,96.00
2023-02-05T12:20:03.010Z,97.29
2023-02-05T12:22:46.001Z,97.20
2023-02-05T12:25:21.755Z,95.18
2023-02-05T12:28:04.582Z,96.70
2023-02-05T12:30:45.263Z,94.05
2023-02-05T12:33:34.541Z,100.00
2023-02-05T12:36:18.900Z,96.85
2023-02-05T12:38:58.886Z,96.42
2023-02-05T12:41:35.498Z,95.65
2023-02-05T12:44:23.549Z,96.98
2023-02-05T12:47:05.497Z,96.30
2023-02-05T12:49:58.125Z,96.36
2023-02-05T12:52:51.592Z,96.90
2023-02-05T12:55:32.913Z,96.96
2023-02-05T12:58:05.463Z,96.29
2023-02-05T13:00:39.517Z,95.93
2023-02-05T13:03:17.295Z,95.88
2023-02-05T13:05:50.374Z,94.17
2023-02-05T13:08:26.397Z,94.65
2023-02-05T13:11:01.590Z,95.72
2023-02-05T13:13:35.081Z,95.12
2023-02-05T13:16:08.441Z,96.31
2023-02-05T13:18:41.424Z,96.12
2023-02-05T13:21:32.872Z,94.51
2023-02-05T13:24:31.176Z,95.07
2023-02-05T13:27:16.874Z,94.54
2023-02-05T13:29:51.669Z,94.97
2023-02-05T13:32:23.694Z,94.65
2023-02-05T13:34:55.698Z,93.28
2023-02-05T13:37:46.434Z,93.73
2023-02-05T13:40:52.602Z,92.31
2023-02-05T13:43:56.480Z,94.21
2023-02-05T13:46:50.356Z,95.17
2023-02-05T13:50:00.902Z,95.50
2023-02-05T13:52:59.295Z,94.27
2023-02-05T13:55:57.545Z,96.29
2023-02-05T13:58:30.425Z,95.00
2023-02-05T14:01:03.245Z,95.29
2023-02-05T14:03:36.671Z,94.70
2023-02-05T14:06:23.611Z,93.77
2023-02-05T14:09:00.183Z,94.73
2023-02-05T14:11:28.960Z,94.61
2023-02-05T14:14:33.264Z,94.58
2023-02-05T14:17:02.996Z,93.97
2023-02-05T14:19:58.958Z,93.59
2023-02-05T14:22:42.928Z,94.07
2023-02-05T14:25:48.151Z,93.67
2023-02-05T14:28:44.835Z,94.07
2023-02-05T14:31:57.908Z,94.57
2023-02-05T14:35:04.698Z,93.67
2023-02-05T14:37:41.162Z,92.78
2023-02-05T14:40:32.656Z,94.88
2023-02-05T14:43:13.722Z,94.29
2023-02-05T14:45:47.709Z,93.65
2023-02-05T14:48:26.348Z,94.15
2023-02-05T14:51:08.037Z,94.67
2023-02-05T14:53:38.754Z,94.92
2023-02-05T14:56:07.923Z,94.31
2023-02-05T14:58:41.072Z,95.08
2023-02-05T15:01:43.578Z,95.73
2023-02-05T15:04:44.853Z,94.65
2023-02-05T15:07:18.645Z,95.42
2023-02-05T15:09:54.036Z,94.55
2023-02-05T15:12:37.215Z,95.53
2023-02-05T15:15:28.319Z,94.88
2023-02-05T15:17:59.990Z,96.07
2023-02-05T15:20:34.160Z,96.48
2023-02-05T15:23:08.131Z,96.30
2023-02-05T15:25:43.377Z,96.07
2023-02-05T15:28:24.854Z,96.21
2023-02-05T15:31:04.031Z,96.38
2023-02-05T15:33:41.461Z,96.54
2023-02-05T15:36:20.087Z,97.38
2023-02-05T15:38:53.718Z,97.13
2023-02-05T15:41:25.456Z,96.21
2023-02-05T15:44:02.519Z,96.25
2023-02-05T15:46:34.229Z,95.94
2023-02-05T15:49:03.200Z,96.15
2023-02-05T15:51:34.802Z,96.91
2023-02-05T15:54:07.314Z,97.05
2023-02-05T15:56:38.471Z,97.13
2023-02-05T15:59:16.263Z,96.69
2023-02-05T16:01:49.179Z,97.00
2023-02-05T16:04:27.822Z,97.34
2023-02-05T16:06:56.350Z,97.70
2023-02-05T16:09:28.727Z,98.02
2023-02-05T16:11:57.300Z,97.93
2023-02-05T16:14:33.486Z,97.48
2023-02-05T16:17:09.287Z,97.47
2023-02-05T16:19:43.965Z,97.76
2023-02-05T16:22:24.226Z,99.01
2023-02-05T16:24:59.344Z,99.23
2023-02-05T16:27:35.698Z,99.75
2023-02-05T16:30:08.948Z,99.72
2023-02-05T16:32:42.531Z,100.00
2023-02-05T16:35:22.236Z,100.00
2023-02-05T16:37:51.048Z,100.00
2023-02-05T16:40:35.554Z,100.00
2023-02-05T16:43:22.351Z,100.00
2023-02-05T16:46:26.016Z,100.00
2023-02-05T16:48:57.273Z,100.00
2023-02-05T16:51:53.798Z,100.00
2023-02-05T16:54:34.499Z,100.00
2023-02-05T16:57:08.344Z,100.00
2023-02-05T16:59:49.211Z,100.00
2023-02-05T17:02:29.393Z,100.00
2023-02-05T17:04:59.745Z,100.00
2023-02-05T17:07:28.711Z,100.00
2023-02-05T17:10:14.387Z,100.00
2023-02-05T17:12:51.971Z,100.00
2023-02-05T17:15:33.368Z,100.00
2023-02-05T17:18:06.625Z,100.00
2023-02-05T17:20:35.796Z,100.00
2023-02-05T17:23:12.450Z,100.00
2023-02-05T17:25:43.469Z,100.00
2023-02-05T17:28:19.581Z,100.00
2023-02-05T17:30:50.601Z,100.00
2023-02-05T17:33:21.558Z,100.00
2023-02-05T17:35:50.534Z,100.00
2023-02-05T17:38:20.721Z,100.00
2023-02-05T17:40:49.204Z,100.00
2023-02-05T17:43:19.062Z,100.00
2023-02-05T17:45:47.578Z,100.00
2023-02-05T17:48:20.647Z,100.00
2023-02-05T17:50:51.635Z,100.00
2023-02-05T17:53:20.052Z,100.00
2023-02-05T17:55:49.061Z,100.00
2023-02-05T17:58:18.940Z,100.00
2023-02-05T18:00:47.381Z,100.00
2023-02-05T18:03:15.848Z,100.00
2023-02-05T18:05:44.236Z,100.00
2023-02-05T18:08:13.182Z,100.00
2023-02-05T18:10:41.624Z,100.00
2023-02-05T18:13:10.725Z,100.00
2023-02-05T18:15:41.147Z,100.00
2023-02-05T18:18:09.497Z,100.00
2023-02-05T18:20:39.442Z,100.00
2023-02-05T18:23:07.831Z,100.00
2023-02-05T18:25:36.996Z,100.00
2023-02-05T18:28:05.582Z,100.00
2023-02-05T18:30:34.526Z,100.00
2023-02-05T18:33:04.528Z,100.00
2023-02-05T18:35:33.068Z,100.00
2023-02-05T18:38:01.558Z,100.00
2023-02-05T18:40:29.897Z,100.00
2023-02-05T18:42:58.413Z,100.00
2023-02-05T18:45:26.916Z,100.00
2023-02-05T18:47:55.392Z,100.00
2023-02-05T18:50:29.341Z,100.00
2023-02-05T18:52:57.920Z,100.00
2023-02-05T18:55:27.679Z,100.00
2023-02-05T18:57:56.612Z,100.00
2023-02-05T19:00:25.128Z,100.00
2023-02-05T19:02:53.608Z,100.00
2023-02-05T19:05:22.627Z,100.00
2023-02-05T19:07:52.779Z,100.00
2023-02-05T19:10:21.820Z,100.00
2023-02-05T19:12:51.102Z,100.00
2023-02-05T19:15:19.581Z,100.00
2023-02-05T19:17:48.256Z,100.00
2023-02-05T19:20:16.797Z,100.00
2023-02-05T19:22:45.161Z,100.00
2023-02-05T19:25:15.743Z,100.00
2023-02-05T19:27:44.246Z,100.00
2023-02-05T19:30:14.266Z,100.00
2023-02-05T19:32:42.652Z,100.00
2023-02-05T19:35:11.327Z,100.00
2023-02-05T19:37:39.673Z,100.00
2023-02-05T19:40:09.531Z,100.00
2023-02-05T19:42:41.695Z,100.00
2023-02-05T19:45:10.900Z,100.00
2023-02-05T19:47:39.601Z,100.00
2023-02-05T19:50:08.725Z,100.00
2023-02-05T19:52:37.132Z,100.00
2023-02-05T19:55:06.442Z,100.00
2023-02-05T19:57:35.902Z,100.00
2023-02-05T20:00:06.584Z,100.00
2023-02-05T20:02:35.974Z,100.00
2023-02-05T20:05:04.515Z,100.00
2023-02-05T20:07:34.078Z,100.00
2023-02-05T20:10:04.684Z,100.00
2023-02-05T20:12:33.412Z,100.00
2023-02-05T20:15:01.867Z,100.00
2023-02-05T20:17:31.719Z,100.00
2023-02-05T20:20:12.401Z,100.00
2023-02-05T20:22:44.283Z,100.00
2023-02-05T20:25:13.410Z,100.00
2023-02-05T20:27:41.907Z,100.00
2023-02-05T20:30:31.686Z,100.00
2023-02-05T20:33:01.871Z,100.00
2023-02-05T20:35:30.297Z,100.00
2023-02-05T20:37:59.399Z,100.00
2023-02-05T20:40:27.795Z,100.00
2023-02-05T20:42:57.347Z,100.00
2023-02-05T20:45:29.058Z,100.00
2023-02-05T20:48:00.298Z,100.00
2023-02-05T20:50:30.995Z,100.00
2023-02-05T20:52:59.542Z,100.00
2023-02-05T20:55:28.189Z,100.00
2023-02-05T20:57:58.342Z,100.00
2023-02-05T21:00:27.744Z,100.00
2023-02-05T21:02:56.689Z,100.00
2023-02-05T21:05:25.204Z,100.00
2023-02-05T21:07:55.112Z,100.00
2023-02-05T21:10:23.783Z,100.00
2023-02-05T21:12:52.268Z,100.00
2023-02-05T21:15:20.708Z,100.00
2023-02-05T21:17:49.122Z,100.00
2023-02-05T21:20:18.210Z,100.00
2023-02-05T21:22:46.733Z,100.00
2023-02-05T21:25:16.801Z,100.00
2023-02-05T21:27:45.331Z,100.00
2023-02-05T21:30:15.175Z,100.00
2023-02-05T21:32:43.912Z,100.00
2023-02-05T21:35:12.352Z,100.00
2023-02-05T21:37:40.923Z,100.00
2023-02-05T21:40:10.120Z,100.00
2023-02-05T21:42:40.010Z,100.00
2023-02-05T21:45:09.390Z,100.00
2023-02-05T21:47:37.927Z,100.00
2023-02-05T21:50:07.606Z,100.00
2023-02-05T21:52:36.058Z,100.00
2023-02-05T21:55:04.703Z,100.00
2023-02-05T21:57:33.157Z,100.00
2023-02-05T22:00:04.486Z,100.00
2023-02-05T22:02:32.957Z,100.00
2023-02-05T22:05:01.520Z,100.00
2023-02-05T22:07:30.180Z,100.00
2023-02-05T22:09:58.696Z,100.00
2023-02-05T22:12:27.458Z,100.00
2023-02-05T22:14:55.844Z,100.00
2023-02-05T22:17:26.202Z,100.00
2023-02-05T22:19:54.656Z,100.00
2023-02-05T22:22:23.289Z,100.00
2023-02-05T22:24:51.909Z,100.00
2023-02-05T22:27:20.567Z,100.00
2023-02-05T22:29:50.708Z,100.00
2023-02-05T22:32:19.140Z,100.00
2023-02-05T22:34:48.952Z,100.00
2023-02-05T22:37:17.582Z,100.00
2023-02-05T22:39:45.966Z,100.00
2023-02-05T22:42:14.600Z,100.00
2023-02-05T22:44:42.997Z,100.00
2023-02-05T22:47:11.393Z,100.00
2023-02-05T22:49:39.976Z,100.00
2023-02-05T22:52:10.715Z,100.00
2023-02-05T22:54:40.646Z,100.00
2023-02-05T22:57:09.253Z,100.00
2023-02-05T22:59:37.698Z,100.00
2023-02-05T23:02:06.351Z,100.00
2023-02-05T23:04:35.138Z,100.00
2023-02-05T23:07:03.568Z,100.00
2023-02-05T23:09:34.491Z,100.00
2023-02-05T23:12:03.484Z,100.00
2023-02-05T23:14:31.988Z,100.00
2023-02-05T23:17:00.645Z,100.00
2023-02-05T23:19:29.396Z,100.00
2023-02-05T23:21:57.911Z,100.00
2023-02-05T23:24:26.453Z,100.00
2023-02-05T23:26:56.456Z,100.00
2023-02-05T23:29:25.017Z,100.00
2023-02-05T23:31:53.419Z,100.00
2023-02-05T23:34:21.924Z,100.00
2023-02-05T23:36:50.426Z,100.00
2023-02-05T23:39:18.863Z,100.00
2023-02-05T23:41:47.501Z,100.00
2023-02-05T23:44:19.597Z,100.00
2023-02-05T23:46:49.598Z,100.00
2023-02-05T23:49:21.237Z,100.00
2023-02-05T23:51:50.039Z,100.00
2023-02-05T23:54:18.741Z,100.00
2023-02-05T23:56:47.622Z,100.00
2023-02-05T23:59:18.399Z,100.00
